createdAt,value
2017-12-13T00:00:39.703Z,83.55
2017-12-13T00:01:45.629Z,83.92
2017-12-13T00:02:51.607Z,83.94
2017-12-13T00:03:57.554Z,83.89
2017-12-13T00:05:07.695Z,83.84
2017-12-13T00:06:14.766Z,84.19
2017-12-13T00:07:20.987Z,84.47
2017-12-13T00:08:27.192Z,84.44
2017-12-13T00:09:33.395Z,84.46
2017-12-13T00:10:39.559Z,84.84
2017-12-13T00:11:45.773Z,84.60
2017-12-13T00:12:51.978Z,84.63
2017-12-13T00:13:57.918Z,84.54
2017-12-13T00:15:04.136Z,84.18
2017-12-13T00:16:10.601Z,83.91
2017-12-13T00:17:16.773Z,83.95
2017-12-13T00:18:28.025Z,84.12
2017-12-13T00:19:39.486Z,84.08
2017-12-13T00:20:49.414Z,83.97
2017-12-13T00:21:55.620Z,84.09
2017-12-13T00:23:01.768Z,83.86
2017-12-13T00:24:07.977Z,83.79
2017-12-13T00:25:14.187Z,83.96
2017-12-13T00:26:20.415Z,83.91
2017-12-13T00:27:26.622Z,83.95
2017-12-13T00:28:32.795Z,83.84
2017-12-13T00:29:38.998Z,83.88
2017-12-13T00:30:45.663Z,83.76
2017-12-13T00:31:51.838Z,83.73
2017-12-13T00:32:58.067Z,83.54
2017-12-13T00:34:04.256Z,83.69
2017-12-13T00:35:10.491Z,83.79
2017-12-13T00:36:21.767Z,84.17
2017-12-13T00:37:33.880Z,84.10
2017-12-13T00:38:40.229Z,83.99
2017-12-13T00:39:47.408Z,83.76
2017-12-13T00:40:53.646Z,83.63
2017-12-13T00:41:59.864Z,83.60
2017-12-13T00:43:06.062Z,83.69
2017-12-13T00:44:12.250Z,83.52
2017-12-13T00:45:18.159Z,83.52
2017-12-13T00:46:24.385Z,83.68
2017-12-13T00:47:31.382Z,83.35
2017-12-13T00:48:37.564Z,83.27
2017-12-13T00:49:43.753Z,83.03
2017-12-13T00:50:49.990Z,83.26
2017-12-13T00:51:55.931Z,83.46
2017-12-13T00:53:08.010Z,83.49
2017-12-13T00:54:14.189Z,83.33
2017-12-13T00:55:25.274Z,83.39
2017-12-13T00:56:31.502Z,83.27
2017-12-13T00:57:37.703Z,83.39
2017-12-13T00:58:43.913Z,83.75
2017-12-13T00:59:50.106Z,83.70
2017-12-13T01:00:56.338Z,83.63
2017-12-13T01:02:02.568Z,83.78
2017-12-13T01:03:09.725Z,83.87
2017-12-13T01:04:15.902Z,84.09
2017-12-13T01:05:21.792Z,83.88
2017-12-13T01:06:27.979Z,83.99
2017-12-13T01:07:35.914Z,84.28
2017-12-13T01:08:48.204Z,84.02
2017-12-13T01:09:54.397Z,84.08
2017-12-13T01:11:00.534Z,84.42
2017-12-13T01:12:06.769Z,84.59
2017-12-13T01:13:12.950Z,84.85
2017-12-13T01:14:19.190Z,85.01
2017-12-13T01:15:25.360Z,84.68
2017-12-13T01:16:31.519Z,84.51
2017-12-13T01:17:37.683Z,84.50
2017-12-13T01:18:45.728Z,84.37
2017-12-13T01:19:51.972Z,84.10
2017-12-13T01:20:58.205Z,83.98
2017-12-13T01:22:04.419Z,84.17
2017-12-13T01:23:10.638Z,84.20
2017-12-13T01:24:16.809Z,84.00
2017-12-13T01:25:23.061Z,84.27
2017-12-13T01:26:29.290Z,84.39
2017-12-13T01:27:35.459Z,84.78
2017-12-13T01:28:47.409Z,84.48
2017-12-13T01:29:53.580Z,84.38
2017-12-13T01:30:59.743Z,84.69
2017-12-13T01:32:07.777Z,84.79
2017-12-13T01:33:14.746Z,84.39
2017-12-13T01:34:20.986Z,84.05
2017-12-13T01:35:27.210Z,84.15
2017-12-13T01:36:33.419Z,84.11
2017-12-13T01:37:39.617Z,83.92
2017-12-13T01:38:45.814Z,84.08
2017-12-13T01:39:52.021Z,84.06
2017-12-13T01:40:58.192Z,84.40
2017-12-13T01:42:04.711Z,84.49
2017-12-13T01:43:10.896Z,84.56
2017-12-13T01:44:17.123Z,84.58
2017-12-13T01:45:23.286Z,84.89
2017-12-13T01:46:29.510Z,85.05
2017-12-13T01:47:35.351Z,85.12
2017-12-13T01:48:41.507Z,85.13
2017-12-13T01:49:47.710Z,85.36
2017-12-13T01:50:53.576Z,85.24
2017-12-13T01:51:59.832Z,85.27
2017-12-13T01:53:06.061Z,85.34
2017-12-13T01:54:12.250Z,85.45
2017-12-13T01:55:18.422Z,85.75
2017-12-13T01:56:31.020Z,85.76
2017-12-13T01:57:37.261Z,86.20
2017-12-13T01:58:43.488Z,85.99
2017-12-13T01:59:49.314Z,85.98
2017-12-13T02:00:54.854Z,85.76
2017-12-13T02:02:03.121Z,85.55
2017-12-13T02:03:09.279Z,85.63
2017-12-13T02:04:15.473Z,85.43
2017-12-13T02:05:21.042Z,85.49
2017-12-13T02:06:26.885Z,85.63
2017-12-13T02:07:34.188Z,85.62
2017-12-13T02:08:40.048Z,85.44
2017-12-13T02:09:45.907Z,85.32
2017-12-13T02:10:52.158Z,85.17
2017-12-13T02:11:58.002Z,84.94
2017-12-13T02:13:04.295Z,85.06
2017-12-13T02:14:10.502Z,85.57
2017-12-13T02:15:16.758Z,85.48
2017-12-13T02:16:22.608Z,85.36
2017-12-13T02:17:28.804Z,85.42
2017-12-13T02:18:35.028Z,86.12
2017-12-13T02:19:40.873Z,86.28
2017-12-13T02:20:46.406Z,86.16
2017-12-13T02:21:52.301Z,86.05
2017-12-13T02:24:09.165Z,86.00
2017-12-13T02:25:14.984Z,86.05
2017-12-13T02:26:21.175Z,85.97
2017-12-13T02:27:27.108Z,85.64
2017-12-13T02:28:33.710Z,85.69
2017-12-13T02:29:39.892Z,85.85
2017-12-13T02:30:46.079Z,85.72
2017-12-13T02:31:52.263Z,85.55
2017-12-13T02:32:58.427Z,85.41
2017-12-13T02:34:04.676Z,85.11
2017-12-13T02:35:10.911Z,84.96
2017-12-13T02:36:17.251Z,85.42
2017-12-13T02:37:23.438Z,85.56
2017-12-13T02:38:30.229Z,85.28
2017-12-13T02:39:36.413Z,84.96
2017-12-13T02:40:53.787Z,85.07
2017-12-13T02:41:59.745Z,85.07
2017-12-13T02:43:05.997Z,85.04
2017-12-13T02:44:12.201Z,84.93
2017-12-13T02:45:20.947Z,84.60
2017-12-13T02:46:27.179Z,84.58
2017-12-13T02:47:33.565Z,84.36
2017-12-13T02:48:39.763Z,84.63
2017-12-13T02:49:45.942Z,84.69
2017-12-13T02:50:52.111Z,84.74
2017-12-13T02:51:58.458Z,84.53
2017-12-13T02:53:04.634Z,84.58
2017-12-13T02:54:10.848Z,84.68
2017-12-13T02:55:16.697Z,84.55
2017-12-13T02:56:22.227Z,84.07
2017-12-13T02:57:27.515Z,84.22
2017-12-13T02:58:33.443Z,84.44
2017-12-13T02:59:38.729Z,84.64
2017-12-13T03:00:45.148Z,84.94
2017-12-13T03:01:51.087Z,84.81
2017-12-13T03:02:57.536Z,85.04
2017-12-13T03:04:03.456Z,85.21
2017-12-13T03:05:09.036Z,85.31
2017-12-13T03:06:14.937Z,85.33
2017-12-13T03:07:20.583Z,85.08
2017-12-13T03:08:26.838Z,85.17
2017-12-13T03:09:33.028Z,85.12
2017-12-13T03:10:39.231Z,85.52
2017-12-13T03:11:45.497Z,85.70
2017-12-13T03:12:51.428Z,85.61
2017-12-13T03:13:57.357Z,85.77
2017-12-13T03:15:03.255Z,86.28
2017-12-13T03:16:09.471Z,86.42
2017-12-13T03:17:15.417Z,86.57
2017-12-13T03:18:21.322Z,86.95
2017-12-13T03:19:27.634Z,86.82
2017-12-13T03:20:33.152Z,87.02
2017-12-13T03:21:39.093Z,86.43
2017-12-13T03:22:45.415Z,86.35
2017-12-13T03:23:51.680Z,86.22
2017-12-13T03:24:57.670Z,86.04
2017-12-13T03:26:03.852Z,85.78
2017-12-13T03:27:09.710Z,85.71
2017-12-13T03:28:15.895Z,85.51
2017-12-13T03:29:22.114Z,85.48
2017-12-13T03:30:28.339Z,85.51
2017-12-13T03:31:34.504Z,85.41
2017-12-13T03:32:40.381Z,85.31
2017-12-13T03:33:46.463Z,85.11
2017-12-13T03:34:52.674Z,85.30
2017-12-13T03:35:58.610Z,85.60
2017-12-13T03:37:04.796Z,85.60
2017-12-13T03:38:10.998Z,85.45
2017-12-13T03:39:17.214Z,85.49
2017-12-13T03:40:23.437Z,85.60
2017-12-13T03:41:29.382Z,85.38
2017-12-13T03:42:35.694Z,85.50
2017-12-13T03:43:41.907Z,85.75
2017-12-13T03:44:48.091Z,85.72
2017-12-13T03:45:54.264Z,85.65
2017-12-13T03:47:00.479Z,85.33
2017-12-13T03:48:06.695Z,85.15
2017-12-13T03:49:12.939Z,85.29
2017-12-13T03:50:19.138Z,85.36
2017-12-13T03:51:25.365Z,85.85
2017-12-13T03:52:31.583Z,85.87
2017-12-13T03:53:37.766Z,85.97
2017-12-13T03:54:43.944Z,86.02
2017-12-13T03:55:50.180Z,86.08
2017-12-13T03:56:56.370Z,86.18
2017-12-13T03:58:02.597Z,86.06
2017-12-13T03:59:08.821Z,86.12
2017-12-13T04:00:15.039Z,86.47
2017-12-13T04:01:21.167Z,86.60
2017-12-13T04:02:27.444Z,86.59
2017-12-13T04:03:33.695Z,86.39
2017-12-13T04:04:39.922Z,86.44
2017-12-13T04:05:46.233Z,86.58
2017-12-13T04:06:52.454Z,86.34
2017-12-13T04:07:58.657Z,86.35
2017-12-13T04:09:03.762Z,86.24
2017-12-13T04:10:09.677Z,86.16
2017-12-13T04:11:15.858Z,85.83
2017-12-13T04:12:22.058Z,85.91
2017-12-13T04:13:28.312Z,85.75
2017-12-13T04:14:34.485Z,85.46
2017-12-13T04:15:40.751Z,85.34
2017-12-13T04:16:46.653Z,85.57
2017-12-13T04:17:52.882Z,85.41
2017-12-13T04:18:59.105Z,85.35
2017-12-13T04:20:05.275Z,84.99
2017-12-13T04:21:11.523Z,85.09
2017-12-13T04:22:17.770Z,85.24
2017-12-13T04:23:24.013Z,85.26
2017-12-13T04:24:30.218Z,85.21
2017-12-13T04:25:36.401Z,84.97
2017-12-13T04:26:42.586Z,84.85
2017-12-13T04:27:48.838Z,84.80
2017-12-13T04:28:55.087Z,84.84
2017-12-13T04:30:01.338Z,84.68
2017-12-13T04:31:07.506Z,84.42
2017-12-13T04:32:13.389Z,84.25
2017-12-13T04:33:19.583Z,84.02
2017-12-13T04:34:26.499Z,84.12
2017-12-13T04:35:32.848Z,84.38
2017-12-13T04:36:39.047Z,84.40
2017-12-13T04:37:45.291Z,84.51
2017-12-13T04:38:51.476Z,84.25
2017-12-13T04:39:57.687Z,84.25
2017-12-13T04:41:03.922Z,84.37
2017-12-13T04:42:10.119Z,84.14
2017-12-13T04:43:16.350Z,84.27
2017-12-13T04:44:22.564Z,84.25
2017-12-13T04:45:28.735Z,84.20
2017-12-13T04:46:35.018Z,84.08
2017-12-13T04:47:40.922Z,83.90
2017-12-13T04:48:47.148Z,83.69
2017-12-13T04:49:59.605Z,83.85
2017-12-13T04:51:05.893Z,83.84
2017-12-13T04:52:12.103Z,83.69
2017-12-13T04:53:18.279Z,83.79
2017-12-13T04:54:24.500Z,83.67
2017-12-13T04:55:30.763Z,83.64
2017-12-13T04:56:36.681Z,83.58
2017-12-13T04:57:42.663Z,83.55
2017-12-13T04:58:48.904Z,83.40
2017-12-13T04:59:55.133Z,83.42
2017-12-13T05:01:01.541Z,83.45
2017-12-13T05:02:07.734Z,83.45
2017-12-13T05:03:14.023Z,83.61
2017-12-13T05:04:21.099Z,83.71
2017-12-13T05:05:27.432Z,83.90
2017-12-13T05:06:33.698Z,83.91
2017-12-13T05:07:39.855Z,83.75
2017-12-13T05:08:46.093Z,83.74
2017-12-13T05:09:52.025Z,84.11
2017-12-13T05:10:57.935Z,84.00
2017-12-13T05:12:03.846Z,83.99
2017-12-13T05:13:09.715Z,83.94
2017-12-13T05:14:15.527Z,83.80
2017-12-13T05:15:21.405Z,83.67
2017-12-13T05:16:27.344Z,83.52
2017-12-13T05:17:33.519Z,83.65
2017-12-13T05:18:39.697Z,83.66
2017-12-13T05:19:45.543Z,83.64
2017-12-13T05:20:51.706Z,83.45
2017-12-13T05:21:57.957Z,83.16
2017-12-13T05:23:04.235Z,83.21
2017-12-13T05:24:11.228Z,83.40
2017-12-13T05:25:17.524Z,83.49
2017-12-13T05:26:28.802Z,83.42
2017-12-13T05:27:35.048Z,83.51
2017-12-13T05:28:41.264Z,83.31
2017-12-13T05:29:47.499Z,83.56
2017-12-13T05:30:53.686Z,83.49
2017-12-13T05:31:59.946Z,83.53
2017-12-13T05:33:06.130Z,83.30
2017-12-13T05:34:12.311Z,83.18
2017-12-13T05:35:18.531Z,83.18
2017-12-13T05:36:24.781Z,82.98
2017-12-13T05:37:31.007Z,83.02
2017-12-13T05:38:37.303Z,83.00
2017-12-13T05:39:43.517Z,83.16
2017-12-13T05:40:49.671Z,83.31
2017-12-13T05:41:55.903Z,83.27
2017-12-13T05:43:02.047Z,82.98
2017-12-13T05:44:08.116Z,82.82
2017-12-13T05:45:14.306Z,82.86
2017-12-13T05:46:20.532Z,82.71
2017-12-13T05:47:26.998Z,82.75
2017-12-13T05:48:33.158Z,82.95
2017-12-13T05:49:39.475Z,82.71
2017-12-13T05:50:46.491Z,82.77
2017-12-13T05:51:54.786Z,82.76
2017-12-13T05:53:01.295Z,82.60
2017-12-13T05:54:07.564Z,82.64
2017-12-13T05:55:13.754Z,82.56
2017-12-13T05:56:19.995Z,82.60
2017-12-13T05:57:25.976Z,82.53
2017-12-13T05:58:34.078Z,82.59
2017-12-13T05:59:40.357Z,82.58
2017-12-13T06:00:45.904Z,82.72
2017-12-13T06:01:52.174Z,82.74
2017-12-13T06:02:58.496Z,82.59
2017-12-13T06:04:04.686Z,82.51
2017-12-13T06:05:10.906Z,82.86
2017-12-13T06:06:17.115Z,82.86
2017-12-13T06:07:23.017Z,82.76
2017-12-13T06:08:29.194Z,82.42
2017-12-13T06:09:35.385Z,82.26
2017-12-13T06:10:41.589Z,82.03
2017-12-13T06:11:47.844Z,82.02
2017-12-13T06:12:54.014Z,82.07
2017-12-13T06:14:03.114Z,82.19
2017-12-13T06:15:09.367Z,82.26
2017-12-13T06:16:19.589Z,82.39
2017-12-13T06:17:25.819Z,82.37
2017-12-13T06:18:32.051Z,82.55
2017-12-13T06:19:38.230Z,82.36
2017-12-13T06:20:45.045Z,82.50
2017-12-13T06:21:51.302Z,82.38
2017-12-13T06:22:57.489Z,82.13
2017-12-13T06:24:03.718Z,82.24
2017-12-13T06:25:09.907Z,82.22
2017-12-13T06:26:16.082Z,82.46
2017-12-13T06:27:22.267Z,82.23
2017-12-13T06:28:28.508Z,82.30
2017-12-13T06:29:34.710Z,82.33
2017-12-13T06:30:40.945Z,82.23
2017-12-13T06:31:47.345Z,81.95
2017-12-13T06:32:53.268Z,81.92
2017-12-13T06:33:59.460Z,81.83
2017-12-13T06:35:05.763Z,82.08
2017-12-13T06:36:12.033Z,81.91
2017-12-13T06:37:18.261Z,81.72
2017-12-13T06:38:24.160Z,81.86
2017-12-13T06:39:30.343Z,81.87
2017-12-13T06:40:36.562Z,81.99
2017-12-13T06:41:42.814Z,81.99
2017-12-13T06:42:48.996Z,81.86
2017-12-13T06:43:55.567Z,81.81
2017-12-13T06:45:01.783Z,81.73
2017-12-13T06:46:08.019Z,81.84
2017-12-13T06:47:14.230Z,81.64
2017-12-13T06:48:20.665Z,81.62
2017-12-13T06:49:26.970Z,81.64
2017-12-13T06:50:33.194Z,81.67
2017-12-13T06:51:39.438Z,81.80
2017-12-13T06:52:48.464Z,82.02
2017-12-13T06:53:54.694Z,82.19
2017-12-13T06:55:00.936Z,82.08
2017-12-13T06:56:07.228Z,81.88
2017-12-13T06:57:13.500Z,81.82
2017-12-13T06:58:19.744Z,81.36
2017-12-13T06:59:25.957Z,81.53
2017-12-13T07:00:32.187Z,81.58
2017-12-13T07:01:38.371Z,81.52
2017-12-13T07:02:44.547Z,81.30
2017-12-13T07:03:50.484Z,81.24
2017-12-13T07:04:56.690Z,81.34
2017-12-13T07:06:02.936Z,81.44
2017-12-13T07:07:09.138Z,81.21
2017-12-13T07:08:15.375Z,81.52
2017-12-13T07:09:21.571Z,81.65
2017-12-13T07:10:30.726Z,81.66
2017-12-13T07:11:36.701Z,81.74
2017-12-13T07:12:42.873Z,81.71
2017-12-13T07:13:49.101Z,81.67
2017-12-13T07:14:55.259Z,81.40
2017-12-13T07:16:01.468Z,81.39
2017-12-13T07:17:07.684Z,81.39
2017-12-13T07:18:13.874Z,81.24
2017-12-13T07:19:20.122Z,81.12
2017-12-13T07:20:26.314Z,81.18
2017-12-13T07:21:32.617Z,81.20
2017-12-13T07:22:38.806Z,81.14
2017-12-13T07:23:45.044Z,81.13
2017-12-13T07:24:51.277Z,81.30
2017-12-13T07:25:57.469Z,81.23
2017-12-13T07:27:06.417Z,81.57
2017-12-13T07:28:12.664Z,81.43
2017-12-13T07:29:18.582Z,81.50
2017-12-13T07:30:25.978Z,81.41
2017-12-13T07:31:31.890Z,81.03
2017-12-13T07:32:38.180Z,81.29
2017-12-13T07:33:44.408Z,81.41
2017-12-13T07:34:50.595Z,81.39
2017-12-13T07:35:56.783Z,81.36
2017-12-13T07:37:03.013Z,81.27
2017-12-13T07:38:09.192Z,81.38
2017-12-13T07:39:15.399Z,81.42
2017-12-13T07:40:21.653Z,81.36
2017-12-13T07:41:27.826Z,81.03
2017-12-13T07:42:34.041Z,81.15
2017-12-13T07:43:40.213Z,80.88
2017-12-13T07:44:49.852Z,80.89
2017-12-13T07:45:56.102Z,80.94
2017-12-13T07:47:02.306Z,80.96
2017-12-13T07:48:09.779Z,80.69
2017-12-13T07:49:15.935Z,80.48
2017-12-13T07:50:22.100Z,80.39
2017-12-13T07:51:28.249Z,80.13
2017-12-13T07:52:34.437Z,79.81
2017-12-13T07:53:40.680Z,79.63
2017-12-13T07:54:46.860Z,79.53
2017-12-13T07:55:53.039Z,79.60
2017-12-13T07:56:59.268Z,79.67
2017-12-13T07:58:05.464Z,79.69
2017-12-13T07:59:11.707Z,79.71
2017-12-13T08:00:23.630Z,79.92
2017-12-13T08:01:29.594Z,79.74
2017-12-13T08:02:35.766Z,79.75
2017-12-13T08:03:41.935Z,79.88
2017-12-13T08:04:48.161Z,80.17
2017-12-13T08:05:54.409Z,80.12
2017-12-13T08:07:00.629Z,79.79
2017-12-13T08:08:06.829Z,79.72
2017-12-13T08:09:13.023Z,79.69
2017-12-13T08:10:19.208Z,79.66
2017-12-13T08:11:25.672Z,79.33
2017-12-13T08:12:31.894Z,79.11
2017-12-13T08:13:38.068Z,79.33
2017-12-13T08:14:44.294Z,79.47
2017-12-13T08:15:50.265Z,79.52
2017-12-13T08:16:56.446Z,79.45
2017-12-13T08:18:02.622Z,79.65
2017-12-13T08:19:08.922Z,79.44
2017-12-13T08:20:15.172Z,79.85
2017-12-13T08:21:21.358Z,79.90
2017-12-13T08:22:27.550Z,79.85
2017-12-13T08:23:33.766Z,79.80
2017-12-13T08:24:40.005Z,79.73
2017-12-13T08:25:46.190Z,79.66
2017-12-13T08:26:52.457Z,79.70
2017-12-13T08:27:58.708Z,79.62
2017-12-13T08:29:04.612Z,79.62
2017-12-13T08:30:10.803Z,79.56
2017-12-13T08:31:17.034Z,79.39
2017-12-13T08:32:22.910Z,79.17
2017-12-13T08:33:29.116Z,79.14
2017-12-13T08:34:35.305Z,79.17
2017-12-13T08:35:41.518Z,79.23
2017-12-13T08:36:47.733Z,79.03
2017-12-13T08:37:53.906Z,78.74
2017-12-13T08:39:00.081Z,78.79
2017-12-13T08:40:05.937Z,79.02
2017-12-13T08:41:12.153Z,79.05
2017-12-13T08:42:18.389Z,79.09
2017-12-13T08:43:24.498Z,78.78
2017-12-13T08:44:30.445Z,78.71
2017-12-13T08:45:36.281Z,78.85
2017-12-13T08:46:42.455Z,78.78
2017-12-13T08:47:48.285Z,78.33
2017-12-13T08:48:54.104Z,78.36
2017-12-13T08:50:00.046Z,78.47
2017-12-13T08:51:06.223Z,78.29
2017-12-13T08:52:12.452Z,78.26
2017-12-13T08:53:18.614Z,77.93
2017-12-13T08:54:24.779Z,78.28
2017-12-13T08:55:30.958Z,78.25
2017-12-13T08:56:37.156Z,78.28
2017-12-13T08:57:43.374Z,78.26
2017-12-13T08:58:49.595Z,78.02
2017-12-13T08:59:55.501Z,77.85
2017-12-13T09:01:01.682Z,77.86
2017-12-13T09:02:08.423Z,77.87
2017-12-13T09:03:14.317Z,77.37
2017-12-13T09:04:20.760Z,77.32
2017-12-13T09:05:26.969Z,77.35
2017-12-13T09:06:32.480Z,77.46
2017-12-13T09:07:42.019Z,77.34
2017-12-13T09:08:52.242Z,77.34
2017-12-13T09:09:58.455Z,77.38
2017-12-13T09:11:04.642Z,77.31
2017-12-13T09:12:10.838Z,77.29
2017-12-13T09:13:17.022Z,77.20
2017-12-13T09:14:23.258Z,77.10
2017-12-13T09:15:29.447Z,77.00
2017-12-13T09:16:35.305Z,76.90
2017-12-13T09:17:40.835Z,76.46
2017-12-13T09:18:47.088Z,76.55
2017-12-13T09:19:53.446Z,76.92
2017-12-13T09:20:59.640Z,76.88
2017-12-13T09:22:05.944Z,77.20
2017-12-13T09:23:12.151Z,76.77
2017-12-13T09:24:18.330Z,76.78
2017-12-13T09:25:24.204Z,76.71
2017-12-13T09:26:30.400Z,76.68
2017-12-13T09:27:36.406Z,76.58
2017-12-13T09:28:42.598Z,76.57
2017-12-13T09:29:48.468Z,76.21
2017-12-13T09:30:54.644Z,76.37
2017-12-13T09:32:00.883Z,76.12
2017-12-13T09:33:07.036Z,75.89
2017-12-13T09:34:13.204Z,75.52
2017-12-13T09:35:19.419Z,75.26
2017-12-13T09:36:25.593Z,75.23
2017-12-13T09:37:31.496Z,74.72
2017-12-13T09:38:37.700Z,74.65
2017-12-13T09:39:43.874Z,74.72
2017-12-13T09:40:50.015Z,74.45
2017-12-13T09:41:56.200Z,74.40
2017-12-13T09:43:05.274Z,74.22
2017-12-13T09:44:11.216Z,74.19
2017-12-13T09:45:17.063Z,74.24
2017-12-13T09:46:23.231Z,74.13
2017-12-13T09:47:29.398Z,74.56
2017-12-13T09:48:35.648Z,74.60
2017-12-13T09:49:41.834Z,74.17
2017-12-13T09:50:47.679Z,74.20
2017-12-13T09:51:53.519Z,73.92
2017-12-13T09:52:59.727Z,74.10
2017-12-13T09:54:05.536Z,74.06
2017-12-13T09:55:11.706Z,74.13
2017-12-13T09:56:17.862Z,74.17
2017-12-13T09:57:26.107Z,74.12
2017-12-13T09:58:32.355Z,74.16
2017-12-13T09:59:38.597Z,73.89
2017-12-13T10:00:44.540Z,73.81
2017-12-13T10:01:50.390Z,73.52
2017-12-13T10:02:56.595Z,73.12
2017-12-13T10:04:02.785Z,72.64
2017-12-13T10:05:08.946Z,72.65
2017-12-13T10:06:15.181Z,72.86
2017-12-13T10:07:21.210Z,73.17
2017-12-13T10:08:27.383Z,73.16
2017-12-13T10:09:33.549Z,72.96
2017-12-13T10:10:39.798Z,73.36
2017-12-13T10:11:45.981Z,72.87
2017-12-13T10:12:52.193Z,73.08
2017-12-13T10:13:58.407Z,72.86
2017-12-13T10:15:04.035Z,73.23
2017-12-13T10:16:11.107Z,73.20
2017-12-13T10:17:17.295Z,73.21
2017-12-13T10:18:23.448Z,73.49
2017-12-13T10:19:31.496Z,73.35
2017-12-13T10:20:37.332Z,73.39
2017-12-13T10:21:43.518Z,73.64
2017-12-13T10:22:49.485Z,73.42
2017-12-13T10:23:55.682Z,73.58
2017-12-13T10:25:01.905Z,73.36
2017-12-13T10:26:07.780Z,73.61
2017-12-13T10:27:14.051Z,73.47
2017-12-13T10:28:20.293Z,73.17
2017-12-13T10:29:26.489Z,72.86
2017-12-13T10:30:32.695Z,72.83
2017-12-13T10:31:38.921Z,72.92
2017-12-13T10:32:45.124Z,72.53
2017-12-13T10:33:51.326Z,72.66
2017-12-13T10:34:57.515Z,72.74
2017-12-13T10:36:03.668Z,72.50
2017-12-13T10:37:09.992Z,72.60
2017-12-13T10:38:16.156Z,72.21
2017-12-13T10:39:23.141Z,71.92
2017-12-13T10:40:29.351Z,72.09
2017-12-13T10:41:35.568Z,71.79
2017-12-13T10:42:41.982Z,71.71
2017-12-13T10:43:48.230Z,71.89
2017-12-13T10:44:54.169Z,71.86
2017-12-13T10:46:05.515Z,71.72
2017-12-13T10:47:11.801Z,71.64
2017-12-13T10:48:17.965Z,71.50
2017-12-13T10:49:24.125Z,71.20
2017-12-13T10:50:30.334Z,71.27
2017-12-13T10:51:36.491Z,71.29
2017-12-13T10:52:42.687Z,71.24
2017-12-13T10:53:48.197Z,71.29
2017-12-13T10:54:54.454Z,71.06
2017-12-13T10:56:00.325Z,71.21
2017-12-13T10:57:06.491Z,70.81
2017-12-13T10:58:12.742Z,70.88
2017-12-13T10:59:18.950Z,71.20
2017-12-13T11:00:24.509Z,71.04
2017-12-13T11:01:30.078Z,70.97
2017-12-13T11:02:35.941Z,70.92
2017-12-13T11:03:41.486Z,70.89
2017-12-13T11:04:47.660Z,70.67
2017-12-13T11:05:54.699Z,70.51
2017-12-13T11:07:00.534Z,70.41
2017-12-13T11:08:06.036Z,70.59
2017-12-13T11:09:12.218Z,70.57
2017-12-13T11:10:18.145Z,70.61
2017-12-13T11:11:24.414Z,70.50
2017-12-13T11:12:30.659Z,70.27
2017-12-13T11:13:37.007Z,70.02
2017-12-13T11:14:43.181Z,69.99
2017-12-13T11:15:49.036Z,70.00
2017-12-13T11:16:55.226Z,70.10
2017-12-13T11:18:01.662Z,70.14
2017-12-13T11:19:07.611Z,70.39
2017-12-13T11:20:15.906Z,70.14
2017-12-13T11:21:22.079Z,70.01
2017-12-13T11:22:34.282Z,70.33
2017-12-13T11:23:40.484Z,70.31
2017-12-13T11:24:46.354Z,70.00
2017-12-13T11:25:52.523Z,70.23
2017-12-13T11:26:58.781Z,70.34
2017-12-13T11:28:04.247Z,70.11
2017-12-13T11:29:10.860Z,70.07
2017-12-13T11:30:16.451Z,69.61
2017-12-13T11:31:22.375Z,69.72
2017-12-13T11:32:28.617Z,69.45
2017-12-13T11:33:34.840Z,69.50
2017-12-13T11:34:40.640Z,69.30
2017-12-13T11:35:46.490Z,69.61
2017-12-13T11:36:54.736Z,69.48
2017-12-13T11:38:06.908Z,69.22
2017-12-13T11:39:13.089Z,69.30
2017-12-13T11:40:19.283Z,69.23
2017-12-13T11:41:25.504Z,69.31
2017-12-13T11:42:31.424Z,68.78
2017-12-13T11:43:37.694Z,68.82
2017-12-13T11:44:43.858Z,69.32
2017-12-13T11:45:50.087Z,69.30
2017-12-13T11:46:59.295Z,69.06
2017-12-13T11:48:05.491Z,68.83
2017-12-13T11:49:11.655Z,68.72
2017-12-13T11:50:17.586Z,68.93
2017-12-13T11:51:23.410Z,69.17
2017-12-13T11:52:29.642Z,69.20
2017-12-13T11:53:35.822Z,69.34
2017-12-13T11:54:41.654Z,68.57
2017-12-13T11:55:47.909Z,68.73
2017-12-13T11:56:53.786Z,68.62
2017-12-13T11:58:00.034Z,68.51
2017-12-13T11:59:06.243Z,68.64
2017-12-13T12:00:11.755Z,68.83
2017-12-13T12:01:16.959Z,68.86
2017-12-13T12:02:22.792Z,68.35
2017-12-13T12:03:28.640Z,68.18
2017-12-13T12:04:34.915Z,68.41
2017-12-13T12:05:41.291Z,67.74
2017-12-13T12:06:47.235Z,67.62
2017-12-13T12:07:53.105Z,67.67
2017-12-13T12:08:59.287Z,67.44
2017-12-13T12:10:05.138Z,67.34
2017-12-13T12:11:11.301Z,67.34
2017-12-13T12:12:17.446Z,67.42
2017-12-13T12:13:23.636Z,67.12
2017-12-13T12:14:30.226Z,66.82
2017-12-13T12:15:35.771Z,66.98
2017-12-13T12:16:41.954Z,66.60
2017-12-13T12:17:48.123Z,67.05
2017-12-13T12:18:54.377Z,66.98
2017-12-13T12:20:00.250Z,67.29
2017-12-13T12:21:06.503Z,66.47
2017-12-13T12:22:12.739Z,66.29
2017-12-13T12:23:18.895Z,66.19
2017-12-13T12:24:25.132Z,66.36
2017-12-13T12:25:31.302Z,66.58
2017-12-13T12:26:37.123Z,66.73
2017-12-13T12:27:43.292Z,66.98
2017-12-13T12:28:49.488Z,67.03
2017-12-13T12:29:55.734Z,66.83
2017-12-13T12:31:01.964Z,66.76
2017-12-13T12:32:08.192Z,66.83
2017-12-13T12:33:14.444Z,66.81
2017-12-13T12:34:20.335Z,66.42
2017-12-13T12:35:26.498Z,66.76
2017-12-13T12:36:32.345Z,66.52
2017-12-13T12:37:38.573Z,66.31
2017-12-13T12:38:44.553Z,66.34
2017-12-13T12:39:50.741Z,66.85
2017-12-13T12:40:56.945Z,66.82
2017-12-13T12:42:03.164Z,67.11
2017-12-13T12:43:09.356Z,66.96
2017-12-13T12:44:15.515Z,67.01
2017-12-13T12:45:21.727Z,66.61
2017-12-13T12:46:27.999Z,66.58
2017-12-13T12:47:34.236Z,66.86
2017-12-13T12:48:40.483Z,66.92
2017-12-13T12:49:46.437Z,67.36
2017-12-13T12:50:52.662Z,67.28
2017-12-13T12:51:58.892Z,67.45
2017-12-13T12:53:05.049Z,67.22
2017-12-13T12:54:11.214Z,67.20
2017-12-13T12:55:17.433Z,67.31
2017-12-13T12:56:23.579Z,67.57
2017-12-13T12:57:29.810Z,67.73
2017-12-13T12:58:35.987Z,67.65
2017-12-13T12:59:42.189Z,67.51
2017-12-13T13:00:48.127Z,67.13
2017-12-13T13:01:54.390Z,67.04
2017-12-13T13:03:00.550Z,66.68
2017-12-13T13:04:09.848Z,66.84
2017-12-13T13:05:16.110Z,66.56
2017-12-13T13:06:22.495Z,66.91
2017-12-13T13:07:28.711Z,66.87
2017-12-13T13:08:34.919Z,66.82
2017-12-13T13:09:40.931Z,67.23
2017-12-13T13:10:47.158Z,67.22
2017-12-13T13:11:53.417Z,67.20
2017-12-13T13:12:59.670Z,67.24
2017-12-13T13:14:05.874Z,67.31
2017-12-13T13:15:11.437Z,67.22
2017-12-13T13:16:16.773Z,67.03
2017-12-13T13:17:22.347Z,66.86
2017-12-13T13:18:27.881Z,66.69
2017-12-13T13:19:33.453Z,66.36
2017-12-13T13:20:39.383Z,66.17
2017-12-13T13:21:45.296Z,66.58
2017-12-13T13:22:51.494Z,66.83
2017-12-13T13:23:57.728Z,66.50
2017-12-13T13:25:03.973Z,66.64
2017-12-13T13:26:10.279Z,66.77
2017-12-13T13:27:16.476Z,66.50
2017-12-13T13:28:21.985Z,66.40
2017-12-13T13:29:28.198Z,66.59
2017-12-13T13:30:34.493Z,66.73
2017-12-13T13:31:40.390Z,66.71
2017-12-13T13:32:46.649Z,66.96
2017-12-13T13:33:52.950Z,66.67
2017-12-13T13:34:59.389Z,66.64
2017-12-13T13:36:05.643Z,66.71
2017-12-13T13:37:11.943Z,66.73
2017-12-13T13:38:18.126Z,66.77
2017-12-13T13:39:24.349Z,66.79
2017-12-13T13:40:30.194Z,66.72
2017-12-13T13:41:36.386Z,66.74
2017-12-13T13:42:42.663Z,66.89
2017-12-13T13:43:48.919Z,67.25
2017-12-13T13:44:55.131Z,66.93
2017-12-13T13:46:01.476Z,66.94
2017-12-13T13:47:07.441Z,66.38
2017-12-13T13:48:13.679Z,66.50
2017-12-13T13:49:24.975Z,66.26
2017-12-13T13:50:31.254Z,66.27
2017-12-13T13:51:42.552Z,66.64
2017-12-13T13:52:48.766Z,67.00
2017-12-13T13:53:55.027Z,66.84
2017-12-13T13:55:01.304Z,66.85
2017-12-13T13:56:07.594Z,67.00
2017-12-13T13:57:13.537Z,66.97
2017-12-13T13:58:19.876Z,67.23
2017-12-13T13:59:26.082Z,67.23
2017-12-13T14:00:32.385Z,67.41
2017-12-13T14:01:38.644Z,67.47
2017-12-13T14:02:44.905Z,67.46
2017-12-13T14:03:51.112Z,67.58
2017-12-13T14:04:57.367Z,67.62
2017-12-13T14:06:03.509Z,67.65
2017-12-13T14:07:09.728Z,67.53
2017-12-13T14:08:15.942Z,67.57
2017-12-13T14:09:22.115Z,67.44
2017-12-13T14:10:28.317Z,67.79
2017-12-13T14:11:34.719Z,67.61
2017-12-13T14:12:40.947Z,67.25
2017-12-13T14:13:47.227Z,67.42
2017-12-13T14:14:53.425Z,67.35
2017-12-13T14:15:59.630Z,66.86